Terminal Aerodrome Forecast
Issued by NWS

Home | Current Version | Previous Version | Text Only | Print | Product List | Glossary On
Versions: 1 2 3 4 5 6 7 8 9 10 11 12 13 14 15 16 17 18 19
000
FTUS43 KDVN 281100
TAFCID
TAF
KCID 281123Z 2812/0112 15003KT P6SM SKC
     FM282100 14008KT P6SM BKN200
     FM010000 16006KT P6SM OVC040 PROB30 0103/0107 4SM -SN OVC015
     FM010700 16007KT P6SM OVC025=

USA.gov is the U.S. government's official web portal to all federal, state and local government web resources and services.